sensor_id;sensor_type;location;lat;lon;timestamp;temperature;humidity
45343;DHT22;31077;50.872;4.352;2023-02-18T00:01:58;24.60;47.60
45343;DHT22;31077;50.872;4.352;2023-02-18T00:04:24;24.90;47.60
45343;DHT22;31077;50.872;4.352;2023-02-18T00:06:50;24.90;47.60
45343;DHT22;31077;50.872;4.352;2023-02-18T00:09:16;24.90;47.60
45343;DHT22;31077;50.872;4.352;2023-02-18T00:11:41;24.30;47.30
45343;DHT22;31077;50.872;4.352;2023-02-18T00:14:11;25.10;47.60
45343;DHT22;31077;50.872;4.352;2023-02-18T00:16:38;24.90;47.60
45343;DHT22;31077;50.872;4.352;2023-02-18T00:19:07;25.00;47.50
45343;DHT22;31077;50.872;4.352;2023-02-18T00:21:34;24.90;47.50
45343;DHT22;31077;50.872;4.352;2023-02-18T00:24:01;24.90;47.40
45343;DHT22;31077;50.872;4.352;2023-02-18T00:26:27;24.90;47.40
45343;DHT22;31077;50.872;4.352;2023-02-18T00:28:53;25.00;47.40
45343;DHT22;31077;50.872;4.352;2023-02-18T00:31:28;23.20;46.40
45343;DHT22;31077;50.872;4.352;2023-02-18T00:33:56;25.50;47.70
45343;DHT22;31077;50.872;4.352;2023-02-18T00:36:23;24.90;47.30
45343;DHT22;31077;50.872;4.352;2023-02-18T00:38:52;24.90;47.20
45343;DHT22;31077;50.872;4.352;2023-02-18T00:41:18;25.00;47.40
45343;DHT22;31077;50.872;4.352;2023-02-18T00:43:45;25.00;47.30
45343;DHT22;31077;50.872;4.352;2023-02-18T00:46:11;24.90;47.20
45343;DHT22;31077;50.872;4.352;2023-02-18T00:48:38;24.90;47.60
45343;DHT22;31077;50.872;4.352;2023-02-18T00:51:05;24.90;47.20
45343;DHT22;31077;50.872;4.352;2023-02-18T00:53:31;25.00;47.20
45343;DHT22;31077;50.872;4.352;2023-02-18T00:55:57;25.10;47.20
45343;DHT22;31077;50.872;4.352;2023-02-18T00:58:23;24.90;47.10
45343;DHT22;31077;50.872;4.352;2023-02-18T01:00:49;25.00;47.20
45343;DHT22;31077;50.872;4.352;2023-02-18T01:03:15;24.50;46.80
45343;DHT22;31077;50.872;4.352;2023-02-18T01:05:42;23.90;46.40
45343;DHT22;31077;50.872;4.352;2023-02-18T01:08:08;25.00;47.00
45343;DHT22;31077;50.872;4.352;2023-02-18T01:10:35;25.10;47.00
45343;DHT22;31077;50.872;4.352;2023-02-18T01:13:02;25.00;46.90
45343;DHT22;31077;50.872;4.352;2023-02-18T01:15:30;25.00;46.90
45343;DHT22;31077;50.872;4.352;2023-02-18T01:17:56;24.90;46.80
45343;DHT22;31077;50.872;4.352;2023-02-18T01:20:23;23.90;46.30
45343;DHT22;31077;50.872;4.352;2023-02-18T01:22:48;25.00;46.90
45343;DHT22;31077;50.872;4.352;2023-02-18T01:25:15;24.90;46.70
45343;DHT22;31077;50.872;4.352;2023-02-18T01:27:41;25.00;46.70
45343;DHT22;31077;50.872;4.352;2023-02-18T01:30:09;25.10;46.80
45343;DHT22;31077;50.872;4.352;2023-02-18T01:32:35;25.00;46.80
45343;DHT22;31077;50.872;4.352;2023-02-18T01:35:02;24.90;46.60
45343;DHT22;31077;50.872;4.352;2023-02-18T01:37:28;25.00;46.70
45343;DHT22;31077;50.872;4.352;2023-02-18T01:39:54;23.70;45.90
45343;DHT22;31077;50.872;4.352;2023-02-18T01:42:22;25.00;46.60
45343;DHT22;31077;50.872;4.352;2023-02-18T01:44:49;24.90;46.50
45343;DHT22;31077;50.872;4.352;2023-02-18T01:47:15;25.10;46.60
45343;DHT22;31077;50.872;4.352;2023-02-18T01:49:42;24.90;46.50
45343;DHT22;31077;50.872;4.352;2023-02-18T01:52:20;25.00;46.40
45343;DHT22;31077;50.872;4.352;2023-02-18T01:54:51;25.00;46.40
45343;DHT22;31077;50.872;4.352;2023-02-18T01:57:24;25.10;46.40
45343;DHT22;31077;50.872;4.352;2023-02-18T01:59:55;25.00;46.30
45343;DHT22;31077;50.872;4.352;2023-02-18T02:02:24;25.00;46.30
45343;DHT22;31077;50.872;4.352;2023-02-18T02:04:51;25.00;46.30
45343;DHT22;31077;50.872;4.352;2023-02-18T02:07:19;25.00;46.30
45343;DHT22;31077;50.872;4.352;2023-02-18T02:09:47;25.10;46.30
45343;DHT22;31077;50.872;4.352;2023-02-18T02:12:42;25.00;46.30
45343;DHT22;31077;50.872;4.352;2023-02-18T02:27:00;23.50;45.60
45343;DHT22;31077;50.872;4.352;2023-02-18T02:29:30;24.90;46.30
45343;DHT22;31077;50.872;4.352;2023-02-18T02:40:22;25.00;46.10
45343;DHT22;31077;50.872;4.352;2023-02-18T02:45:44;25.10;46.10
45343;DHT22;31077;50.872;4.352;2023-02-18T02:48:28;25.10;46.00
45343;DHT22;31077;50.872;4.352;2023-02-18T02:51:10;26.70;47.10
45343;DHT22;31077;50.872;4.352;2023-02-18T02:53:39;25.10;46.00
45343;DHT22;31077;50.872;4.352;2023-02-18T02:56:08;25.10;46.00
45343;DHT22;31077;50.872;4.352;2023-02-18T02:58:34;25.10;46.00
45343;DHT22;31077;50.872;4.352;2023-02-18T03:15:56;25.10;46.10
45343;DHT22;31077;50.872;4.352;2023-02-18T03:18:34;25.00;46.00
45343;DHT22;31077;50.872;4.352;2023-02-18T03:21:15;25.30;46.10
45343;DHT22;31077;50.872;4.352;2023-02-18T03:26:20;25.10;46.00
45343;DHT22;31077;50.872;4.352;2023-02-18T03:28:48;25.10;45.90
45343;DHT22;31077;50.872;4.352;2023-02-18T03:31:18;25.00;45.90
45343;DHT22;31077;50.872;4.352;2023-02-18T03:33:50;25.00;45.90
45343;DHT22;31077;50.872;4.352;2023-02-18T03:36:19;25.00;45.80
45343;DHT22;31077;50.872;4.352;2023-02-18T03:39:00;25.10;45.90
45343;DHT22;31077;50.872;4.352;2023-02-18T03:41:27;25.20;46.00
45343;DHT22;31077;50.872;4.352;2023-02-18T03:44:02;25.10;45.90
45343;DHT22;31077;50.872;4.352;2023-02-18T03:46:29;25.10;45.90
45343;DHT22;31077;50.872;4.352;2023-02-18T03:48:55;24.90;45.70
45343;DHT22;31077;50.872;4.352;2023-02-18T03:51:21;25.00;45.70
45343;DHT22;31077;50.872;4.352;2023-02-18T03:53:47;25.00;45.80
45343;DHT22;31077;50.872;4.352;2023-02-18T03:56:13;25.10;45.60
45343;DHT22;31077;50.872;4.352;2023-02-18T03:58:39;25.00;45.60
45343;DHT22;31077;50.872;4.352;2023-02-18T04:01:05;25.20;45.80
45343;DHT22;31077;50.872;4.352;2023-02-18T04:03:31;25.10;45.60
45343;DHT22;31077;50.872;4.352;2023-02-18T04:05:57;25.20;45.60
45343;DHT22;31077;50.872;4.352;2023-02-18T04:08:23;25.10;45.50
45343;DHT22;31077;50.872;4.352;2023-02-18T04:10:49;25.10;45.50
45343;DHT22;31077;50.872;4.352;2023-02-18T04:13:16;25.10;45.50
45343;DHT22;31077;50.872;4.352;2023-02-18T04:15:43;25.00;45.40
45343;DHT22;31077;50.872;4.352;2023-02-18T04:18:09;25.10;45.50
45343;DHT22;31077;50.872;4.352;2023-02-18T04:20:35;24.30;45.00
45343;DHT22;31077;50.872;4.352;2023-02-18T04:23:02;25.10;45.40
45343;DHT22;31077;50.872;4.352;2023-02-18T04:25:27;25.00;45.30
45343;DHT22;31077;50.872;4.352;2023-02-18T04:27:53;25.10;45.40
45343;DHT22;31077;50.872;4.352;2023-02-18T04:30:19;23.50;44.50
45343;DHT22;31077;50.872;4.352;2023-02-18T04:32:45;25.00;45.20
45343;DHT22;31077;50.872;4.352;2023-02-18T04:35:11;25.00;45.30
45343;DHT22;31077;50.872;4.352;2023-02-18T04:37:36;25.00;45.30
45343;DHT22;31077;50.872;4.352;2023-02-18T04:40:03;25.00;45.30
45343;DHT22;31077;50.872;4.352;2023-02-18T04:42:29;24.90;45.50
45343;DHT22;31077;50.872;4.352;2023-02-18T04:44:54;25.00;45.40
45343;DHT22;31077;50.872;4.352;2023-02-18T04:47:20;25.00;45.30
45343;DHT22;31077;50.872;4.352;2023-02-18T04:49:46;25.00;45.30
45343;DHT22;31077;50.872;4.352;2023-02-18T04:52:12;25.40;45.80
45343;DHT22;31077;50.872;4.352;2023-02-18T04:54:38;25.00;45.50
45343;DHT22;31077;50.872;4.352;2023-02-18T04:57:05;24.80;45.50
45343;DHT22;31077;50.872;4.352;2023-02-18T04:59:31;25.70;46.70
45343;DHT22;31077;50.872;4.352;2023-02-18T05:01:56;24.90;45.90
45343;DHT22;31077;50.872;4.352;2023-02-18T05:04:22;24.90;45.90
45343;DHT22;31077;50.872;4.352;2023-02-18T05:06:48;24.90;45.70
45343;DHT22;31077;50.872;4.352;2023-02-18T05:09:14;24.80;45.70
45343;DHT22;31077;50.872;4.352;2023-02-18T05:11:42;24.90;45.80
45343;DHT22;31077;50.872;4.352;2023-02-18T05:14:08;24.90;45.70
45343;DHT22;31077;50.872;4.352;2023-02-18T05:16:34;24.80;45.60
45343;DHT22;31077;50.872;4.352;2023-02-18T05:19:00;24.90;45.50
45343;DHT22;31077;50.872;4.352;2023-02-18T05:21:25;24.90;45.30
45343;DHT22;31077;50.872;4.352;2023-02-18T05:23:51;24.80;45.30
45343;DHT22;31077;50.872;4.352;2023-02-18T05:26:17;24.90;45.30
45343;DHT22;31077;50.872;4.352;2023-02-18T05:28:43;24.90;45.30
45343;DHT22;31077;50.872;4.352;2023-02-18T05:31:09;24.80;45.20
45343;DHT22;31077;50.872;4.352;2023-02-18T05:33:35;24.90;45.20
45343;DHT22;31077;50.872;4.352;2023-02-18T05:36:01;24.80;45.20
45343;DHT22;31077;50.872;4.352;2023-02-18T05:38:26;23.50;44.40
45343;DHT22;31077;50.872;4.352;2023-02-18T05:40:52;24.90;45.10
45343;DHT22;31077;50.872;4.352;2023-02-18T05:43:19;24.90;45.10
45343;DHT22;31077;50.872;4.352;2023-02-18T05:45:45;24.90;45.10
45343;DHT22;31077;50.872;4.352;2023-02-18T05:48:11;24.70;44.90
45343;DHT22;31077;50.872;4.352;2023-02-18T05:50:37;24.70;44.80
45343;DHT22;31077;50.872;4.352;2023-02-18T05:53:03;24.70;44.80
45343;DHT22;31077;50.872;4.352;2023-02-18T05:55:29;24.70;44.80
45343;DHT22;31077;50.872;4.352;2023-02-18T05:57:54;24.70;44.70
45343;DHT22;31077;50.872;4.352;2023-02-18T06:00:20;24.70;44.60
45343;DHT22;31077;50.872;4.352;2023-02-18T06:02:46;24.80;44.60
45343;DHT22;31077;50.872;4.352;2023-02-18T06:05:12;24.70;44.50
45343;DHT22;31077;50.872;4.352;2023-02-18T06:07:37;24.80;44.40
45343;DHT22;31077;50.872;4.352;2023-02-18T06:10:04;24.70;44.30
45343;DHT22;31077;50.872;4.352;2023-02-18T06:12:30;24.80;44.30
45343;DHT22;31077;50.872;4.352;2023-02-18T06:14:56;24.80;44.30
45343;DHT22;31077;50.872;4.352;2023-02-18T06:17:21;24.80;44.20
45343;DHT22;31077;50.872;4.352;2023-02-18T06:19:47;24.70;44.10
45343;DHT22;31077;50.872;4.352;2023-02-18T06:22:14;24.70;43.90
45343;DHT22;31077;50.872;4.352;2023-02-18T06:24:39;24.70;43.90
45343;DHT22;31077;50.872;4.352;2023-02-18T06:27:06;24.80;44.30
45343;DHT22;31077;50.872;4.352;2023-02-18T06:29:32;24.70;43.60
45343;DHT22;31077;50.872;4.352;2023-02-18T06:31:58;24.90;43.80
45343;DHT22;31077;50.872;4.352;2023-02-18T06:34:25;24.70;43.60
45343;DHT22;31077;50.872;4.352;2023-02-18T06:36:51;24.80;43.50
45343;DHT22;31077;50.872;4.352;2023-02-18T06:39:17;24.70;43.60
45343;DHT22;31077;50.872;4.352;2023-02-18T06:41:42;24.20;43.10
45343;DHT22;31077;50.872;4.352;2023-02-18T06:44:08;24.60;43.30
45343;DHT22;31077;50.872;4.352;2023-02-18T06:46:36;24.70;43.40
45343;DHT22;31077;50.872;4.352;2023-02-18T06:49:02;24.80;43.40
45343;DHT22;31077;50.872;4.352;2023-02-18T06:51:28;24.70;43.30
45343;DHT22;31077;50.872;4.352;2023-02-18T06:53:54;24.70;42.90
45343;DHT22;31077;50.872;4.352;2023-02-18T06:56:20;24.70;42.90
45343;DHT22;31077;50.872;4.352;2023-02-18T06:58:46;24.90;43.00
45343;DHT22;31077;50.872;4.352;2023-02-18T07:01:11;24.70;42.70
45343;DHT22;31077;50.872;4.352;2023-02-18T07:03:37;22.80;41.60
45343;DHT22;31077;50.872;4.352;2023-02-18T07:06:03;24.80;42.80
45343;DHT22;31077;50.872;4.352;2023-02-18T07:08:29;24.70;42.60
45343;DHT22;31077;50.872;4.352;2023-02-18T07:10:57;24.70;42.60
45343;DHT22;31077;50.872;4.352;2023-02-18T07:13:23;24.70;42.70
45343;DHT22;31077;50.872;4.352;2023-02-18T07:15:49;24.70;42.50
45343;DHT22;31077;50.872;4.352;2023-02-18T07:18:14;24.70;42.40
45343;DHT22;31077;50.872;4.352;2023-02-18T07:20:40;24.70;42.40
45343;DHT22;31077;50.872;4.352;2023-02-18T07:23:06;24.80;42.40
45343;DHT22;31077;50.872;4.352;2023-02-18T07:25:31;24.70;42.30
45343;DHT22;31077;50.872;4.352;2023-02-18T07:27:57;24.70;42.30
45343;DHT22;31077;50.872;4.352;2023-02-18T07:30:23;24.70;42.20
45343;DHT22;31077;50.872;4.352;2023-02-18T07:32:49;24.70;42.20
45343;DHT22;31077;50.872;4.352;2023-02-18T07:35:16;24.70;42.20
45343;DHT22;31077;50.872;4.352;2023-02-18T07:37:46;24.70;42.10
45343;DHT22;31077;50.872;4.352;2023-02-18T07:40:17;24.70;42.20
45343;DHT22;31077;50.872;4.352;2023-02-18T07:42:43;24.90;42.30
45343;DHT22;31077;50.872;4.352;2023-02-18T07:45:10;24.70;42.10
45343;DHT22;31077;50.872;4.352;2023-02-18T07:47:39;24.70;42.20
45343;DHT22;31077;50.872;4.352;2023-02-18T07:50:07;24.70;42.10
45343;DHT22;31077;50.872;4.352;2023-02-18T07:52:33;24.80;42.10
45343;DHT22;31077;50.872;4.352;2023-02-18T07:54:59;24.70;42.00
45343;DHT22;31077;50.872;4.352;2023-02-18T07:57:25;23.80;41.60
45343;DHT22;31077;50.872;4.352;2023-02-18T07:59:51;24.70;41.90
45343;DHT22;31077;50.872;4.352;2023-02-18T08:02:19;24.70;42.10
45343;DHT22;31077;50.872;4.352;2023-02-18T08:04:46;24.70;42.10
45343;DHT22;31077;50.872;4.352;2023-02-18T08:07:13;24.80;42.00
45343;DHT22;31077;50.872;4.352;2023-02-18T08:09:40;24.70;41.80
45343;DHT22;31077;50.872;4.352;2023-02-18T08:12:06;24.70;41.90
45343;DHT22;31077;50.872;4.352;2023-02-18T08:14:32;24.70;42.00
45343;DHT22;31077;50.872;4.352;2023-02-18T08:16:58;24.70;41.90
45343;DHT22;31077;50.872;4.352;2023-02-18T08:19:23;24.80;42.00
45343;DHT22;31077;50.872;4.352;2023-02-18T08:21:49;24.60;41.80
45343;DHT22;31077;50.872;4.352;2023-02-18T08:24:15;24.70;41.90
45343;DHT22;31077;50.872;4.352;2023-02-18T08:26:41;24.70;41.70
45343;DHT22;31077;50.872;4.352;2023-02-18T08:29:07;24.60;41.60
45343;DHT22;31077;50.872;4.352;2023-02-18T08:31:33;24.30;41.40
45343;DHT22;31077;50.872;4.352;2023-02-18T08:33:59;24.70;41.80
45343;DHT22;31077;50.872;4.352;2023-02-18T08:36:26;24.70;41.90
45343;DHT22;31077;50.872;4.352;2023-02-18T08:38:53;24.70;41.80
45343;DHT22;31077;50.872;4.352;2023-02-18T08:41:19;24.70;41.70
45343;DHT22;31077;50.872;4.352;2023-02-18T08:43:45;24.60;41.50
45343;DHT22;31077;50.872;4.352;2023-02-18T08:46:12;24.10;41.50
45343;DHT22;31077;50.872;4.352;2023-02-18T08:48:38;24.60;41.90
45343;DHT22;31077;50.872;4.352;2023-02-18T08:51:15;24.70;41.50
45343;DHT22;31077;50.872;4.352;2023-02-18T08:53:42;24.70;41.40
45343;DHT22;31077;50.872;4.352;2023-02-18T08:56:08;24.70;41.40
45343;DHT22;31077;50.872;4.352;2023-02-18T08:58:35;24.70;41.30
45343;DHT22;31077;50.872;4.352;2023-02-18T09:01:04;24.70;41.30
45343;DHT22;31077;50.872;4.352;2023-02-18T09:03:30;24.70;41.10
45343;DHT22;31077;50.872;4.352;2023-02-18T09:05:56;24.70;41.20
45343;DHT22;31077;50.872;4.352;2023-02-18T09:08:23;24.70;41.20
45343;DHT22;31077;50.872;4.352;2023-02-18T09:10:49;24.70;41.20
45343;DHT22;31077;50.872;4.352;2023-02-18T09:13:14;24.70;41.10
45343;DHT22;31077;50.872;4.352;2023-02-18T09:15:40;24.70;41.20
45343;DHT22;31077;50.872;4.352;2023-02-18T09:18:06;24.70;41.00
45343;DHT22;31077;50.872;4.352;2023-02-18T09:20:31;24.60;41.10
45343;DHT22;31077;50.872;4.352;2023-02-18T09:22:57;24.70;41.00
45343;DHT22;31077;50.872;4.352;2023-02-18T09:25:25;24.70;41.20
45343;DHT22;31077;50.872;4.352;2023-02-18T09:27:51;24.90;41.10
45343;DHT22;31077;50.872;4.352;2023-02-18T09:30:16;24.70;41.10
45343;DHT22;31077;50.872;4.352;2023-02-18T09:32:42;24.70;41.10
45343;DHT22;31077;50.872;4.352;2023-02-18T09:35:08;24.80;41.10
45343;DHT22;31077;50.872;4.352;2023-02-18T09:37:34;24.80;41.50
45343;DHT22;31077;50.872;4.352;2023-02-18T09:40:00;24.80;41.10
45343;DHT22;31077;50.872;4.352;2023-02-18T09:42:31;24.70;41.10
45343;DHT22;31077;50.872;4.352;2023-02-18T09:45:00;24.70;41.10
45343;DHT22;31077;50.872;4.352;2023-02-18T09:47:38;23.70;40.50
45343;DHT22;31077;50.872;4.352;2023-02-18T09:50:28;24.70;40.90
45343;DHT22;31077;50.872;4.352;2023-02-18T09:52:57;24.70;41.00
45343;DHT22;31077;50.872;4.352;2023-02-18T09:55:30;24.70;40.90
45343;DHT22;31077;50.872;4.352;2023-02-18T09:58:00;26.00;41.90
45343;DHT22;31077;50.872;4.352;2023-02-18T10:00:34;24.80;41.10
45343;DHT22;31077;50.872;4.352;2023-02-18T10:03:01;24.70;41.40
45343;DHT22;31077;50.872;4.352;2023-02-18T10:05:29;24.70;41.10
45343;DHT22;31077;50.872;4.352;2023-02-18T10:08:01;24.80;41.20
45343;DHT22;31077;50.872;4.352;2023-02-18T10:10:41;24.70;41.00
45343;DHT22;31077;50.872;4.352;2023-02-18T10:13:18;24.70;41.10
45343;DHT22;31077;50.872;4.352;2023-02-18T10:15:45;24.70;41.20
45343;DHT22;31077;50.872;4.352;2023-02-18T10:18:32;24.70;41.30
45343;DHT22;31077;50.872;4.352;2023-02-18T10:21:09;24.80;41.40
45343;DHT22;31077;50.872;4.352;2023-02-18T10:23:40;24.70;41.20
45343;DHT22;31077;50.872;4.352;2023-02-18T10:26:13;24.70;41.20
45343;DHT22;31077;50.872;4.352;2023-02-18T10:28:40;24.70;41.40
45343;DHT22;31077;50.872;4.352;2023-02-18T10:31:14;24.70;41.30
45343;DHT22;31077;50.872;4.352;2023-02-18T10:33:45;24.30;41.10
45343;DHT22;31077;50.872;4.352;2023-02-18T10:44:50;24.70;41.70
45343;DHT22;31077;50.872;4.352;2023-02-18T10:52:42;24.70;41.60
45343;DHT22;31077;50.872;4.352;2023-02-18T10:55:14;24.70;41.50
45343;DHT22;31077;50.872;4.352;2023-02-18T10:57:51;24.80;41.70
45343;DHT22;31077;50.872;4.352;2023-02-18T11:00:23;24.70;41.60
45343;DHT22;31077;50.872;4.352;2023-02-18T11:05:49;25.40;42.30
45343;DHT22;31077;50.872;4.352;2023-02-18T11:08:26;24.70;41.70
45343;DHT22;31077;50.872;4.352;2023-02-18T11:10:54;24.90;41.90
45343;DHT22;31077;50.872;4.352;2023-02-18T11:13:28;24.80;41.70
45343;DHT22;31077;50.872;4.352;2023-02-18T11:16:01;24.80;41.60
45343;DHT22;31077;50.872;4.352;2023-02-18T11:18:39;24.70;41.60
45343;DHT22;31077;50.872;4.352;2023-02-18T11:21:28;24.70;41.80
45343;DHT22;31077;50.872;4.352;2023-02-18T11:23:55;24.70;41.80
45343;DHT22;31077;50.872;4.352;2023-02-18T11:26:31;24.80;41.90
45343;DHT22;31077;50.872;4.352;2023-02-18T11:29:05;24.70;41.80
45343;DHT22;31077;50.872;4.352;2023-02-18T11:31:46;24.80;41.80
45343;DHT22;31077;50.872;4.352;2023-02-18T11:34:20;24.70;41.70
45343;DHT22;31077;50.872;4.352;2023-02-18T11:36:47;24.80;42.00
45343;DHT22;31077;50.872;4.352;2023-02-18T11:39:23;24.70;41.90
45343;DHT22;31077;50.872;4.352;2023-02-18T11:42:00;24.80;41.80
45343;DHT22;31077;50.872;4.352;2023-02-18T11:44:31;24.80;42.00
45343;DHT22;31077;50.872;4.352;2023-02-18T11:47:03;24.80;42.30
45343;DHT22;31077;50.872;4.352;2023-02-18T11:49:31;24.70;42.10
45343;DHT22;31077;50.872;4.352;2023-02-18T11:52:23;24.90;42.30
45343;DHT22;31077;50.872;4.352;2023-02-18T11:57:27;24.90;42.50
45343;DHT22;31077;50.872;4.352;2023-02-18T11:59:54;24.70;42.10
45343;DHT22;31077;50.872;4.352;2023-02-18T12:05:13;24.90;42.60
45343;DHT22;31077;50.872;4.352;2023-02-18T12:07:47;24.80;42.10
45343;DHT22;31077;50.872;4.352;2023-02-18T12:10:27;24.80;42.10
45343;DHT22;31077;50.872;4.352;2023-02-18T12:13:01;24.70;42.20
45343;DHT22;31077;50.872;4.352;2023-02-18T12:15:45;24.90;42.20
45343;DHT22;31077;50.872;4.352;2023-02-18T12:33:05;24.70;42.50
45343;DHT22;31077;50.872;4.352;2023-02-18T12:38:29;24.80;43.00
45343;DHT22;31077;50.872;4.352;2023-02-18T12:44:35;24.80;43.20
45343;DHT22;31077;50.872;4.352;2023-02-18T13:06:37;24.80;44.20
45343;DHT22;31077;50.872;4.352;2023-02-18T13:17:42;24.80;45.50
45343;DHT22;31077;50.872;4.352;2023-02-18T13:20:19;24.80;45.60
45343;DHT22;31077;50.872;4.352;2023-02-18T13:23:05;24.90;45.50
45343;DHT22;31077;50.872;4.352;2023-02-18T13:25:36;24.70;45.50
45343;DHT22;31077;50.872;4.352;2023-02-18T13:34:42;24.80;45.60
45343;DHT22;31077;50.872;4.352;2023-02-18T13:37:38;24.80;45.70
45343;DHT22;31077;50.872;4.352;2023-02-18T13:40:24;24.80;45.70
45343;DHT22;31077;50.872;4.352;2023-02-18T13:42:53;24.90;45.90
45343;DHT22;31077;50.872;4.352;2023-02-18T13:45:25;24.80;45.60
45343;DHT22;31077;50.872;4.352;2023-02-18T13:47:53;24.70;45.80
45343;DHT22;31077;50.872;4.352;2023-02-18T13:50:24;24.90;45.80
45343;DHT22;31077;50.872;4.352;2023-02-18T13:58:22;24.80;45.40
45343;DHT22;31077;50.872;4.352;2023-02-18T14:01:04;24.80;45.30
45343;DHT22;31077;50.872;4.352;2023-02-18T14:06:17;24.90;45.20
45343;DHT22;31077;50.872;4.352;2023-02-18T14:08:43;24.70;45.10
45343;DHT22;31077;50.872;4.352;2023-02-18T14:13:46;24.80;45.10
45343;DHT22;31077;50.872;4.352;2023-02-18T14:16:13;24.70;44.90
45343;DHT22;31077;50.872;4.352;2023-02-18T14:42:00;24.70;44.50
45343;DHT22;31077;50.872;4.352;2023-02-18T14:44:46;24.70;44.40
45343;DHT22;31077;50.872;4.352;2023-02-18T14:49:43;24.70;44.40
45343;DHT22;31077;50.872;4.352;2023-02-18T14:52:37;24.70;44.30
45343;DHT22;31077;50.872;4.352;2023-02-18T14:55:13;24.70;44.20
45343;DHT22;31077;50.872;4.352;2023-02-18T14:57:47;23.40;43.50
45343;DHT22;31077;50.872;4.352;2023-02-18T15:00:19;24.70;44.10
45343;DHT22;31077;50.872;4.352;2023-02-18T15:02:49;24.70;44.10
45343;DHT22;31077;50.872;4.352;2023-02-18T15:05:29;24.70;44.10
45343;DHT22;31077;50.872;4.352;2023-02-18T15:08:00;24.70;44.10
45343;DHT22;31077;50.872;4.352;2023-02-18T15:11:01;24.70;44.10
45343;DHT22;31077;50.872;4.352;2023-02-18T15:13:29;24.80;44.10
45343;DHT22;31077;50.872;4.352;2023-02-18T15:16:05;24.70;44.10
45343;DHT22;31077;50.872;4.352;2023-02-18T15:18:40;24.70;44.10
45343;DHT22;31077;50.872;4.352;2023-02-18T15:21:12;24.80;44.00
45343;DHT22;31077;50.872;4.352;2023-02-18T15:23:40;24.70;44.00
45343;DHT22;31077;50.872;4.352;2023-02-18T15:26:06;24.80;44.00
45343;DHT22;31077;50.872;4.352;2023-02-18T15:28:41;24.70;43.90
45343;DHT22;31077;50.872;4.352;2023-02-18T15:31:15;24.70;43.90
45343;DHT22;31077;50.872;4.352;2023-02-18T15:33:46;24.70;43.90
45343;DHT22;31077;50.872;4.352;2023-02-18T15:36:13;24.70;43.80
45343;DHT22;31077;50.872;4.352;2023-02-18T15:38:39;24.70;43.80
45343;DHT22;31077;50.872;4.352;2023-02-18T15:41:14;24.70;43.70
45343;DHT22;31077;50.872;4.352;2023-02-18T15:43:54;24.70;43.80
45343;DHT22;31077;50.872;4.352;2023-02-18T15:46:23;24.70;43.80
45343;DHT22;31077;50.872;4.352;2023-02-18T15:48:51;24.70;43.80
45343;DHT22;31077;50.872;4.352;2023-02-18T15:51:26;24.70;43.80
45343;DHT22;31077;50.872;4.352;2023-02-18T15:53:55;24.70;43.80
45343;DHT22;31077;50.872;4.352;2023-02-18T15:56:33;24.90;43.80
45343;DHT22;31077;50.872;4.352;2023-02-18T16:01:40;24.70;43.70
45343;DHT22;31077;50.872;4.352;2023-02-18T16:04:07;24.70;43.80
45343;DHT22;31077;50.872;4.352;2023-02-18T16:06:45;24.70;43.70
45343;DHT22;31077;50.872;4.352;2023-02-18T16:09:15;24.70;43.70
45343;DHT22;31077;50.872;4.352;2023-02-18T16:11:52;24.70;43.60
45343;DHT22;31077;50.872;4.352;2023-02-18T16:17:08;24.70;43.60
45343;DHT22;31077;50.872;4.352;2023-02-18T16:19:47;24.70;43.60
45343;DHT22;31077;50.872;4.352;2023-02-18T16:23:09;24.70;43.60
45343;DHT22;31077;50.872;4.352;2023-02-18T16:27:53;24.70;43.60
45343;DHT22;31077;50.872;4.352;2023-02-18T16:30:25;24.70;43.60
45343;DHT22;31077;50.872;4.352;2023-02-18T16:32:51;24.60;43.50
45343;DHT22;31077;50.872;4.352;2023-02-18T16:35:18;24.70;43.50
45343;DHT22;31077;50.872;4.352;2023-02-18T16:37:44;24.70;43.50
45343;DHT22;31077;50.872;4.352;2023-02-18T16:42:41;24.70;43.50
45343;DHT22;31077;50.872;4.352;2023-02-18T16:45:11;24.70;43.50
45343;DHT22;31077;50.872;4.352;2023-02-18T16:47:37;24.70;43.50
45343;DHT22;31077;50.872;4.352;2023-02-18T16:50:04;24.70;43.50
45343;DHT22;31077;50.872;4.352;2023-02-18T16:52:30;24.70;43.40
45343;DHT22;31077;50.872;4.352;2023-02-18T16:54:55;24.70;43.40
45343;DHT22;31077;50.872;4.352;2023-02-18T16:57:21;24.70;43.50
45343;DHT22;31077;50.872;4.352;2023-02-18T16:59:47;24.70;43.40
45343;DHT22;31077;50.872;4.352;2023-02-18T17:02:19;24.60;43.40
45343;DHT22;31077;50.872;4.352;2023-02-18T17:04:45;24.70;43.50
45343;DHT22;31077;50.872;4.352;2023-02-18T17:07:11;24.70;43.50
45343;DHT22;31077;50.872;4.352;2023-02-18T17:09:37;24.60;43.40
45343;DHT22;31077;50.872;4.352;2023-02-18T17:12:03;24.60;43.40
45343;DHT22;31077;50.872;4.352;2023-02-18T17:14:30;24.70;43.40
45343;DHT22;31077;50.872;4.352;2023-02-18T17:16:56;24.60;43.40
45343;DHT22;31077;50.872;4.352;2023-02-18T17:19:23;24.60;43.30
45343;DHT22;31077;50.872;4.352;2023-02-18T17:21:49;24.60;44.00
45343;DHT22;31077;50.872;4.352;2023-02-18T17:24:17;24.60;43.90
45343;DHT22;31077;50.872;4.352;2023-02-18T17:26:43;24.60;43.40
45343;DHT22;31077;50.872;4.352;2023-02-18T17:29:09;24.60;43.30
45343;DHT22;31077;50.872;4.352;2023-02-18T17:31:40;24.70;43.40
45343;DHT22;31077;50.872;4.352;2023-02-18T17:34:14;23.20;42.60
45343;DHT22;31077;50.872;4.352;2023-02-18T17:36:41;24.70;43.40
45343;DHT22;31077;50.872;4.352;2023-02-18T17:39:14;24.60;43.40
45343;DHT22;31077;50.872;4.352;2023-02-18T17:41:40;24.60;43.40
45343;DHT22;31077;50.872;4.352;2023-02-18T17:44:20;24.70;43.40
45343;DHT22;31077;50.872;4.352;2023-02-18T17:46:47;24.70;43.40
45343;DHT22;31077;50.872;4.352;2023-02-18T17:49:16;24.60;43.30
45343;DHT22;31077;50.872;4.352;2023-02-18T17:51:41;24.70;43.40
45343;DHT22;31077;50.872;4.352;2023-02-18T17:54:12;24.70;43.40
45343;DHT22;31077;50.872;4.352;2023-02-18T17:56:38;24.70;43.40
45343;DHT22;31077;50.872;4.352;2023-02-18T17:59:04;24.70;43.40
45343;DHT22;31077;50.872;4.352;2023-02-18T18:01:29;24.70;43.40
45343;DHT22;31077;50.872;4.352;2023-02-18T18:03:55;24.60;43.30
45343;DHT22;31077;50.872;4.352;2023-02-18T18:06:21;24.70;43.40
45343;DHT22;31077;50.872;4.352;2023-02-18T18:08:48;24.60;43.40
45343;DHT22;31077;50.872;4.352;2023-02-18T18:11:20;24.60;43.40
45343;DHT22;31077;50.872;4.352;2023-02-18T18:13:47;24.60;43.40
45343;DHT22;31077;50.872;4.352;2023-02-18T18:16:14;24.60;43.40
45343;DHT22;31077;50.872;4.352;2023-02-18T18:18:40;24.70;43.40
45343;DHT22;31077;50.872;4.352;2023-02-18T18:21:24;24.80;43.40
45343;DHT22;31077;50.872;4.352;2023-02-18T18:23:50;24.70;43.50
45343;DHT22;31077;50.872;4.352;2023-02-18T18:26:16;24.70;43.40
45343;DHT22;31077;50.872;4.352;2023-02-18T18:28:42;24.70;43.50